Time;durP1;ratioP1;P1;durP2;ratioP2;P2;SDS_P1;SDS_P2;PMS_P1;PMS_P2;Temp;Humidity;BMP_temperature;BMP_pressure;BME280_temperature;BME280_humidity;BME280_pressure;Samples;Min_cycle;Max_cycle;Signal;HPM_P1;HPM_P2
2022/09/26 00:01:08;;;;;;;129.57;73.80;;;;;;;;;;4982621;28;20276;-43
2022/09/26 00:03:34;;;;;;;103.70;64.80;;;;;;;;;;4984264;28;20276;-43
2022/09/26 00:06:01;;;;;;;118.90;69.80;;;;;;;;;;4980750;28;20388;-43
2022/09/26 00:08:27;;;;;;;107.30;66.77;;;;;;;;;;4979248;28;20192;-43
2022/09/26 00:10:57;;;;;;;110.97;66.97;;;;;;;;;;4985288;28;20185;-43
2022/09/26 00:13:24;;;;;;;110.20;67.47;;;;;;;;;;4983882;28;20967;-42
2022/09/26 00:15:50;;;;;;;107.30;66.07;;;;;;;;;;4982056;28;20819;-42
2022/09/26 00:18:16;;;;;;;124.03;69.60;;;;;;;;;;4985319;28;20291;-43
2022/09/26 00:20:42;;;;;;;105.60;63.60;;;;;;;;;;4985427;28;20770;-42
2022/09/26 00:23:09;;;;;;;129.23;70.80;;;;;;;;;;4986448;28;20208;-43
2022/09/26 00:25:35;;;;;;;112.17;66.60;;;;;;;;;;4982903;28;20188;-43
2022/09/26 00:28:01;;;;;;;97.10;62.20;;;;;;;;;;4985833;28;20680;-43
2022/09/26 00:30:27;;;;;;;93.63;59.60;;;;;;;;;;4981880;28;20393;-43
2022/09/26 00:32:53;;;;;;;90.00;58.93;;;;;;;;;;4981472;28;20209;-43
2022/09/26 00:35:19;;;;;;;84.63;57.13;;;;;;;;;;4984343;28;20181;-43
2022/09/26 00:37:45;;;;;;;98.73;60.40;;;;;;;;;;4986211;28;20177;-43
2022/09/26 00:40:11;;;;;;;99.50;59.47;;;;;;;;;;4984725;28;20321;-43
2022/09/26 00:42:37;;;;;;;90.20;57.07;;;;;;;;;;4982849;28;20200;-43
2022/09/26 00:45:04;;;;;;;104.13;62.53;;;;;;;;;;4980669;28;21242;-43
2022/09/26 00:47:42;;;;;;;82.47;54.53;;;;;;;;;;4984315;28;20177;-43
2022/09/26 00:50:43;;;;;;;98.93;60.03;;;;;;;;;;4984365;28;20188;-44
2022/09/26 00:53:14;;;;;;;82.60;55.33;;;;;;;;;;5001306;28;20385;-43
2022/09/26 00:55:43;;;;;;;76.67;51.77;;;;;;;;;;4984863;28;21017;-44
2022/09/26 00:58:14;;;;;;;75.10;50.80;;;;;;;;;;4984217;28;20181;-42
2022/09/26 01:00:40;;;;;;;75.13;51.10;;;;;;;;;;4984253;28;20242;-43
2022/09/26 01:03:06;;;;;;;61.47;46.20;;;;;;;;;;4983822;28;20199;-43
2022/09/26 01:05:34;;;;;;;66.03;48.57;;;;;;;;;;4983017;28;20272;-43
2022/09/26 01:08:01;;;;;;;68.70;48.07;;;;;;;;;;4981617;28;20189;-43
2022/09/26 01:10:28;;;;;;;68.57;48.17;;;;;;;;;;4983890;28;21146;-43
2022/09/26 01:12:55;;;;;;;76.50;50.83;;;;;;;;;;4987602;28;20209;-43
2022/09/26 01:15:21;;;;;;;71.57;50.27;;;;;;;;;;4983107;28;20743;-43
2022/09/26 01:17:48;;;;;;;63.23;47.00;;;;;;;;;;4983111;28;20180;-43
2022/09/26 01:20:17;;;;;;;68.30;48.13;;;;;;;;;;4981519;28;20177;-42
2022/09/26 01:22:55;;;;;;;76.47;51.00;;;;;;;;;;4984540;28;20181;-43
2022/09/26 01:25:28;;;;;;;65.43;47.93;;;;;;;;;;4981902;28;20180;-43
2022/09/26 01:27:57;;;;;;;84.63;52.90;;;;;;;;;;4980787;28;20205;-43
2022/09/26 01:30:27;;;;;;;78.33;51.30;;;;;;;;;;4981464;28;21036;-44
2022/09/26 01:32:56;;;;;;;74.20;48.23;;;;;;;;;;4985017;28;20240;-42
2022/09/26 01:35:27;;;;;;;74.93;46.50;;;;;;;;;;4984832;28;20181;-43
2022/09/26 01:38:06;;;;;;;65.47;43.23;;;;;;;;;;4985792;28;20970;-43
2022/09/26 01:40:44;;;;;;;74.70;49.17;;;;;;;;;;4983749;28;20279;-43
2022/09/26 01:43:25;;;;;;;70.43;47.27;;;;;;;;;;4982726;28;20189;-43
2022/09/26 01:46:10;;;;;;;81.07;50.77;;;;;;;;;;4982939;28;20180;-43
2022/09/26 01:48:43;;;;;;;90.63;53.20;;;;;;;;;;4982586;28;21111;-43
2022/09/26 01:51:17;;;;;;;71.70;47.73;;;;;;;;;;4979394;28;20219;-42
2022/09/26 01:53:50;;;;;;;79.40;50.23;;;;;;;;;;4982868;28;20197;-42
2022/09/26 01:56:22;;;;;;;65.30;44.80;;;;;;;;;;4983765;28;20178;-42
2022/09/26 01:58:53;;;;;;;62.03;43.23;;;;;;;;;;4984622;28;20969;-43
2022/09/26 02:01:21;;;;;;;65.47;44.43;;;;;;;;;;4981158;28;20213;-43
2022/09/26 02:03:52;;;;;;;59.93;42.47;;;;;;;;;;4983002;28;20288;-43
2022/09/26 02:06:22;;;;;;;60.57;43.17;;;;;;;;;;4982232;28;20176;-43
2022/09/26 02:08:56;;;;;;;60.37;42.80;;;;;;;;;;4978984;28;20177;-43
2022/09/26 02:11:24;;;;;;;64.27;43.50;;;;;;;;;;4982582;28;20253;-43
2022/09/26 02:13:56;;;;;;;72.93;45.80;;;;;;;;;;4982425;28;20427;-43
2022/09/26 02:16:31;;;;;;;61.97;43.50;;;;;;;;;;4983323;28;20187;-43
2022/09/26 02:18:59;;;;;;;60.30;42.80;;;;;;;;;;5014362;28;20173;-43
2022/09/26 02:21:26;;;;;;;63.60;42.83;;;;;;;;;;4979826;28;20169;-43
2022/09/26 02:23:53;;;;;;;62.33;42.93;;;;;;;;;;4984034;28;21019;-43
2022/09/26 02:26:19;;;;;;;63.90;42.50;;;;;;;;;;4984820;28;20174;-43
2022/09/26 02:28:46;;;;;;;61.20;42.00;;;;;;;;;;4983262;28;20209;-43
2022/09/26 02:31:19;;;;;;;56.03;40.53;;;;;;;;;;4982845;28;20260;-43
2022/09/26 02:33:45;;;;;;;58.93;41.43;;;;;;;;;;4983186;28;20271;-43
2022/09/26 02:36:12;;;;;;;61.07;41.53;;;;;;;;;;4982100;28;20173;-43
2022/09/26 02:38:38;;;;;;;58.70;41.27;;;;;;;;;;4983901;28;21346;-43
2022/09/26 02:41:23;;;;;;;51.70;38.07;;;;;;;;;;4985621;28;21107;-43
2022/09/26 02:44:01;;;;;;;58.60;40.13;;;;;;;;;;4981213;28;20187;-43
2022/09/26 02:46:45;;;;;;;56.93;39.87;;;;;;;;;;4982160;28;20201;-43
2022/09/26 02:49:28;;;;;;;56.23;38.70;;;;;;;;;;4979569;28;20711;-42
2022/09/26 02:52:30;;;;;;;56.03;38.33;;;;;;;;;;4977777;28;20180;-42
2022/09/26 02:55:08;;;;;;;54.30;37.63;;;;;;;;;;4997585;28;20191;-43
2022/09/26 02:57:34;;;;;;;59.63;41.33;;;;;;;;;;4981284;28;20189;-43
2022/09/26 03:00:03;;;;;;;64.47;42.60;;;;;;;;;;4980576;28;20177;-43
2022/09/26 03:02:33;;;;;;;53.93;38.47;;;;;;;;;;4980864;28;20177;-45
2022/09/26 03:05:09;;;;;;;54.97;40.07;;;;;;;;;;4982292;28;20971;-43
2022/09/26 03:07:55;;;;;;;55.43;39.13;;;;;;;;;;4983066;28;20279;-43
2022/09/26 03:10:22;;;;;;;50.83;37.80;;;;;;;;;;4981529;28;20184;-43
2022/09/26 03:12:49;;;;;;;48.97;36.57;;;;;;;;;;4981236;28;20248;-43
2022/09/26 03:15:17;;;;;;;50.67;36.97;;;;;;;;;;4983199;28;20283;-43
2022/09/26 03:17:46;;;;;;;50.17;36.70;;;;;;;;;;4984312;28;20291;-43
2022/09/26 03:20:17;;;;;;;50.33;37.10;;;;;;;;;;4981656;28;20184;-43
2022/09/26 03:22:43;;;;;;;52.67;37.23;;;;;;;;;;4979517;28;20258;-43
2022/09/26 03:25:10;;;;;;;49.73;36.27;;;;;;;;;;4982262;28;20189;-42
2022/09/26 03:27:38;;;;;;;51.30;36.43;;;;;;;;;;4984252;28;20205;-42
2022/09/26 03:30:04;;;;;;;68.40;42.77;;;;;;;;;;4983428;28;20677;-42
2022/09/26 03:32:31;;;;;;;59.83;39.63;;;;;;;;;;4979556;28;20218;-42
2022/09/26 03:34:57;;;;;;;62.57;38.87;;;;;;;;;;4981542;28;20181;-43
2022/09/26 03:37:23;;;;;;;60.87;38.73;;;;;;;;;;4983617;28;20173;-43
2022/09/26 03:39:49;;;;;;;54.90;37.67;;;;;;;;;;4984217;28;20186;-43
2022/09/26 03:42:15;;;;;;;56.03;36.97;;;;;;;;;;4981207;28;20185;-43
2022/09/26 03:44:42;;;;;;;60.80;39.17;;;;;;;;;;4979495;28;20301;-42
2022/09/26 03:47:09;;;;;;;68.13;41.17;;;;;;;;;;4978151;28;20184;-43
2022/09/26 03:49:35;;;;;;;90.60;47.30;;;;;;;;;;4980259;28;20185;-43
2022/09/26 03:52:01;;;;;;;80.53;45.33;;;;;;;;;;4982206;28;20178;-43
2022/09/26 03:54:27;;;;;;;92.13;48.90;;;;;;;;;;4978159;28;21284;-43
2022/09/26 03:56:54;;;;;;;115.77;53.77;;;;;;;;;;4978980;28;20177;-43
2022/09/26 03:59:20;;;;;;;144.30;58.93;;;;;;;;;;4980539;28;20890;-43
2022/09/26 04:01:47;;;;;;;140.17;60.23;;;;;;;;;;4982519;28;20856;-43
2022/09/26 04:04:15;;;;;;;166.07;65.43;;;;;;;;;;4980045;28;20188;-43
2022/09/26 04:06:43;;;;;;;218.53;78.80;;;;;;;;;;4979285;28;21163;-43
2022/09/26 04:09:10;;;;;;;226.47;81.10;;;;;;;;;;4981629;28;20181;-43
2022/09/26 04:11:36;;;;;;;199.47;77.43;;;;;;;;;;4977882;28;20743;-43
2022/09/26 04:14:02;;;;;;;217.37;81.27;;;;;;;;;;4982656;28;20282;-43
2022/09/26 04:16:29;;;;;;;253.47;87.03;;;;;;;;;;4984504;28;21003;-43
2022/09/26 04:18:56;;;;;;;252.17;86.10;;;;;;;;;;4985466;28;20184;-43
2022/09/26 04:21:22;;;;;;;179.87;70.87;;;;;;;;;;4979767;28;21325;-43
2022/09/26 04:23:49;;;;;;;167.37;68.47;;;;;;;;;;4982743;28;21172;-43
2022/09/26 04:26:19;;;;;;;176.70;71.63;;;;;;;;;;4987909;28;20185;-43
2022/09/26 04:28:47;;;;;;;243.97;85.87;;;;;;;;;;4984411;28;20181;-43
2022/09/26 04:31:13;;;;;;;174.03;71.07;;;;;;;;;;4984433;28;20180;-43
2022/09/26 04:33:39;;;;;;;201.67;78.50;;;;;;;;;;4982333;28;20207;-44
2022/09/26 04:36:07;;;;;;;227.07;80.50;;;;;;;;;;4983300;28;20177;-44
2022/09/26 04:38:33;;;;;;;175.37;70.93;;;;;;;;;;4985187;28;21083;-44
2022/09/26 04:41:03;;;;;;;188.07;73.90;;;;;;;;;;4985251;28;20188;-44
2022/09/26 04:43:30;;;;;;;184.87;72.07;;;;;;;;;;4982239;28;20182;-44
2022/09/26 04:45:56;;;;;;;174.93;71.40;;;;;;;;;;4983709;28;20291;-43
2022/09/26 04:48:22;;;;;;;182.13;70.37;;;;;;;;;;4977673;28;20287;-44
2022/09/26 04:50:48;;;;;;;164.40;66.17;;;;;;;;;;4980829;28;20186;-44
2022/09/26 04:53:15;;;;;;;167.93;65.90;;;;;;;;;;4986429;28;20208;-44
2022/09/26 04:55:44;;;;;;;175.00;68.20;;;;;;;;;;4981504;28;21092;-44
2022/09/26 04:58:11;;;;;;;163.70;65.90;;;;;;;;;;4982056;28;20188;-44
2022/09/26 05:00:41;;;;;;;156.40;62.37;;;;;;;;;;4984760;28;20177;-44
2022/09/26 05:03:08;;;;;;;157.83;64.07;;;;;;;;;;4984204;28;20270;-44
2022/09/26 05:05:35;;;;;;;164.47;67.23;;;;;;;;;;4984213;28;20287;-44
2022/09/26 05:08:01;;;;;;;153.60;63.47;;;;;;;;;;4981187;28;20239;-44
2022/09/26 05:10:27;;;;;;;191.07;70.90;;;;;;;;;;4981715;28;20201;-42
2022/09/26 05:12:53;;;;;;;157.43;68.20;;;;;;;;;;4980983;28;20208;-43
2022/09/26 05:15:20;;;;;;;166.03;68.67;;;;;;;;;;4981336;28;21765;-43
2022/09/26 05:17:46;;;;;;;139.43;62.50;;;;;;;;;;4983441;28;20299;-43
2022/09/26 05:20:13;;;;;;;163.57;69.90;;;;;;;;;;4982855;28;20173;-43
2022/09/26 05:22:39;;;;;;;144.27;65.90;;;;;;;;;;4981186;28;20209;-43
2022/09/26 05:27:50;;;;;;;167.53;72.17;;;;;;;;;;4985278;28;20339;-43
2022/09/26 05:30:16;;;;;;;168.90;72.93;;;;;;;;;;4979508;28;20310;-43
2022/09/26 05:32:47;;;;;;;166.30;67.60;;;;;;;;;;4980638;28;20321;-43
2022/09/26 05:35:13;;;;;;;150.53;65.77;;;;;;;;;;4983472;28;20181;-43
2022/09/26 05:37:39;;;;;;;177.47;74.57;;;;;;;;;;4985126;28;20305;-43
2022/09/26 05:42:50;;;;;;;149.40;67.20;;;;;;;;;;4987607;28;20268;-43
2022/09/26 05:45:16;;;;;;;159.10;70.33;;;;;;;;;;4983860;28;22176;-43
2022/09/26 05:47:42;;;;;;;142.37;65.80;;;;;;;;;;4980723;28;20192;-42
2022/09/26 05:50:08;;;;;;;135.93;59.80;;;;;;;;;;4977435;28;21022;-42
2022/09/26 05:52:38;;;;;;;116.13;56.77;;;;;;;;;;4976300;28;20734;-42
2022/09/26 05:55:05;;;;;;;111.00;54.43;;;;;;;;;;4976136;28;20268;-42
2022/09/26 05:57:31;;;;;;;101.17;52.07;;;;;;;;;;4981749;28;20721;-42
2022/09/26 05:59:57;;;;;;;95.80;49.03;;;;;;;;;;4979349;28;20953;-45
2022/09/26 06:02:23;;;;;;;101.07;51.10;;;;;;;;;;4978289;28;20687;-43
2022/09/26 06:04:49;;;;;;;101.73;51.03;;;;;;;;;;4977410;28;20176;-43
2022/09/26 06:07:15;;;;;;;105.50;50.60;;;;;;;;;;4984836;28;20384;-43
2022/09/26 06:09:42;;;;;;;119.37;54.40;;;;;;;;;;4985692;28;20180;-43
2022/09/26 06:12:08;;;;;;;87.70;46.77;;;;;;;;;;4985942;28;20279;-43
2022/09/26 06:14:34;;;;;;;82.13;43.47;;;;;;;;;;4982785;28;20244;-43
2022/09/26 06:17:00;;;;;;;79.53;40.30;;;;;;;;;;4982801;28;20215;-43
2022/09/26 06:19:26;;;;;;;74.57;39.60;;;;;;;;;;4985215;28;20247;-43
2022/09/26 06:21:52;;;;;;;72.37;40.87;;;;;;;;;;4986036;28;20188;-43
2022/09/26 06:24:19;;;;;;;84.70;44.43;;;;;;;;;;4983718;28;20185;-43
2022/09/26 06:26:45;;;;;;;81.23;43.43;;;;;;;;;;4986975;28;20513;-43
2022/09/26 06:29:11;;;;;;;97.67;45.87;;;;;;;;;;4985628;28;20172;-43
2022/09/26 06:31:37;;;;;;;92.50;46.00;;;;;;;;;;4977840;28;20208;-43
2022/09/26 06:34:04;;;;;;;94.50;46.17;;;;;;;;;;4983139;28;20727;-43
2022/09/26 06:36:30;;;;;;;98.07;48.47;;;;;;;;;;4984821;28;20442;-43
2022/09/26 06:38:56;;;;;;;101.17;50.63;;;;;;;;;;4982778;28;20193;-42
2022/09/26 06:41:25;;;;;;;98.53;51.57;;;;;;;;;;4986750;28;20173;-42
2022/09/26 06:43:51;;;;;;;119.87;57.93;;;;;;;;;;4982497;28;20345;-42
2022/09/26 06:46:19;;;;;;;114.77;59.63;;;;;;;;;;4981521;28;20967;-42
2022/09/26 06:48:45;;;;;;;132.03;63.10;;;;;;;;;;4984687;28;20177;-43
2022/09/26 06:51:13;;;;;;;125.93;59.20;;;;;;;;;;4985466;28;20304;-43
2022/09/26 06:53:39;;;;;;;107.80;55.93;;;;;;;;;;4984028;28;20208;-43
2022/09/26 06:56:05;;;;;;;111.17;55.97;;;;;;;;;;4981059;28;20348;-43
2022/09/26 06:58:31;;;;;;;107.23;54.97;;;;;;;;;;4975495;28;20574;-44
2022/09/26 07:01:00;;;;;;;119.00;58.53;;;;;;;;;;4983909;28;20307;-43
2022/09/26 07:03:26;;;;;;;98.33;52.17;;;;;;;;;;4987417;28;20341;-44
2022/09/26 07:05:56;;;;;;;122.03;58.30;;;;;;;;;;4988662;28;20505;-43
2022/09/26 07:08:22;;;;;;;115.30;59.13;;;;;;;;;;4984804;28;20458;-43
2022/09/26 07:10:49;;;;;;;114.87;56.33;;;;;;;;;;4981390;28;20519;-44
2022/09/26 07:13:15;;;;;;;96.43;52.07;;;;;;;;;;4984526;28;20205;-42
2022/09/26 07:15:44;;;;;;;100.37;51.77;;;;;;;;;;4984363;28;20181;-43
2022/09/26 07:18:10;;;;;;;80.20;46.33;;;;;;;;;;4983519;28;20320;-43
2022/09/26 07:20:39;;;;;;;89.30;49.23;;;;;;;;;;4981955;28;20292;-43
2022/09/26 07:23:07;;;;;;;82.23;46.03;;;;;;;;;;4982824;28;20613;-45
2022/09/26 07:25:34;;;;;;;83.87;46.93;;;;;;;;;;4984324;28;20204;-44
2022/09/26 07:28:00;;;;;;;72.53;41.63;;;;;;;;;;4985479;28;20266;-43
2022/09/26 07:30:27;;;;;;;55.80;33.57;;;;;;;;;;4985442;28;20185;-43
2022/09/26 07:32:57;;;;;;;50.23;30.50;;;;;;;;;;4984337;28;20733;-46
2022/09/26 07:35:23;;;;;;;46.60;30.87;;;;;;;;;;4985832;28;20655;-43
2022/09/26 07:37:51;;;;;;;55.87;34.37;;;;;;;;;;4987641;28;20181;-43
2022/09/26 07:40:20;;;;;;;48.63;31.73;;;;;;;;;;4990596;28;20185;-43
2022/09/26 07:42:46;;;;;;;43.77;27.87;;;;;;;;;;4990041;28;20189;-44
2022/09/26 07:45:13;;;;;;;39.70;24.80;;;;;;;;;;4985531;28;20180;-43
2022/09/26 07:50:24;;;;;;;39.07;24.03;;;;;;;;;;4989875;28;20363;-43
2022/09/26 07:52:51;;;;;;;29.57;20.57;;;;;;;;;;4988089;28;20572;-45
2022/09/26 07:55:18;;;;;;;26.53;19.50;;;;;;;;;;4989962;28;20235;-44
2022/09/26 07:57:47;;;;;;;28.13;20.13;;;;;;;;;;4985119;28;20614;-44
2022/09/26 08:00:15;;;;;;;26.17;19.33;;;;;;;;;;4987234;28;20794;-43
2022/09/26 08:02:44;;;;;;;27.10;18.57;;;;;;;;;;4985122;28;20230;-44
2022/09/26 08:05:11;;;;;;;20.63;17.37;;;;;;;;;;4988808;28;20223;-43
2022/09/26 08:07:37;;;;;;;22.40;17.10;;;;;;;;;;4988995;28;20627;-43
2022/09/26 08:10:05;;;;;;;21.23;16.80;;;;;;;;;;4988862;28;20891;-42
2022/09/26 08:12:38;;;;;;;23.13;17.53;;;;;;;;;;4985389;28;20750;-42
2022/09/26 08:15:05;;;;;;;22.47;17.50;;;;;;;;;;4983514;28;20892;-44
2022/09/26 08:17:32;;;;;;;16.70;13.40;;;;;;;;;;4985531;28;20188;-43
2022/09/26 08:19:59;;;;;;;16.57;13.33;;;;;;;;;;4976986;28;20755;-43
2022/09/26 08:22:25;;;;;;;13.10;11.73;;;;;;;;;;4986146;28;20181;-44
2022/09/26 08:24:52;;;;;;;17.47;14.00;;;;;;;;;;4984917;28;20427;-43
2022/09/26 08:27:19;;;;;;;21.27;15.93;;;;;;;;;;4984110;28;20620;-42
2022/09/26 08:29:48;;;;;;;19.50;14.30;;;;;;;;;;4989492;28;20564;-42
2022/09/26 08:32:15;;;;;;;14.33;12.80;;;;;;;;;;4987439;28;20267;-42
2022/09/26 08:34:41;;;;;;;15.50;13.87;;;;;;;;;;5017301;28;20215;-43
2022/09/26 08:37:08;;;;;;;16.93;12.53;;;;;;;;;;4986711;28;20588;-42
2022/09/26 08:39:34;;;;;;;16.77;13.27;;;;;;;;;;5002088;28;20180;-43
2022/09/26 08:42:17;;;;;;;15.37;12.73;;;;;;;;;;4984302;28;20339;-43
2022/09/26 08:48:13;;;;;;;17.43;13.60;;;;;;;;;;4940857;28;20999;-43
2022/09/26 08:50:45;;;;;;;14.90;12.23;;;;;;;;;;4989026;28;20191;-43
2022/09/26 08:53:16;;;;;;;16.43;12.43;;;;;;;;;;4986218;28;20200;-42
2022/09/26 08:55:44;;;;;;;17.33;13.20;;;;;;;;;;4993079;28;20276;-43
2022/09/26 08:58:21;;;;;;;15.47;13.30;;;;;;;;;;4984501;28;20197;-42
2022/09/26 09:00:50;;;;;;;16.10;12.77;;;;;;;;;;4986840;28;20188;-43
2022/09/26 09:03:34;;;;;;;15.23;13.50;;;;;;;;;;4986394;28;20273;-43
2022/09/26 09:06:03;;;;;;;13.27;11.87;;;;;;;;;;4982767;28;20184;-43
2022/09/26 09:08:40;;;;;;;15.27;12.73;;;;;;;;;;4987842;28;20496;-43
2022/09/26 09:11:06;;;;;;;14.53;11.87;;;;;;;;;;4984687;28;20188;-44
2022/09/26 09:13:51;;;;;;;14.83;13.03;;;;;;;;;;4975290;28;20208;-42
2022/09/26 09:16:29;;;;;;;14.13;12.27;;;;;;;;;;4983283;28;20181;-42
2022/09/26 09:19:01;;;;;;;13.60;12.20;;;;;;;;;;5006566;28;20184;-43
2022/09/26 09:21:39;;;;;;;14.53;13.03;;;;;;;;;;4979217;28;20252;-43
2022/09/26 09:24:11;;;;;;;13.67;11.40;;;;;;;;;;4989072;28;20644;-43
2022/09/26 09:26:40;;;;;;;12.57;10.87;;;;;;;;;;4987592;28;20189;-44
2022/09/26 09:29:25;;;;;;;15.43;11.80;;;;;;;;;;4982393;28;20188;-44
2022/09/26 09:31:51;;;;;;;14.23;12.67;;;;;;;;;;4988572;28;20215;-43
2022/09/26 09:34:38;;;;;;;14.30;12.17;;;;;;;;;;4988085;28;20204;-43
2022/09/26 09:37:08;;;;;;;13.97;12.57;;;;;;;;;;4984557;28;20188;-43
2022/09/26 09:39:36;;;;;;;15.10;13.50;;;;;;;;;;5011491;28;20208;-44
2022/09/26 09:42:23;;;;;;;18.30;14.10;;;;;;;;;;4983958;28;22010;-43
2022/09/26 09:44:55;;;;;;;14.03;12.53;;;;;;;;;;4983516;28;20181;-43
2022/09/26 09:47:21;;;;;;;16.43;13.97;;;;;;;;;;4985351;28;20299;-44
2022/09/26 09:49:48;;;;;;;15.80;14.10;;;;;;;;;;4984237;28;20750;-44
2022/09/26 09:52:26;;;;;;;14.53;13.03;;;;;;;;;;4986237;28;20189;-43
2022/09/26 09:55:05;;;;;;;13.53;12.10;;;;;;;;;;4985099;28;20205;-43
2022/09/26 09:57:34;;;;;;;15.70;13.67;;;;;;;;;;4984095;28;21110;-43
2022/09/26 10:00:00;;;;;;;13.73;12.30;;;;;;;;;;4985388;28;20177;-43
2022/09/26 10:02:46;;;;;;;15.90;13.63;;;;;;;;;;4986976;28;21415;-43
2022/09/26 10:05:32;;;;;;;17.17;14.73;;;;;;;;;;4978897;28;20297;-43
2022/09/26 10:07:59;;;;;;;16.27;14.20;;;;;;;;;;4983382;28;20490;-43
2022/09/26 10:10:37;;;;;;;15.33;13.70;;;;;;;;;;4982584;28;20189;-43
2022/09/26 10:13:05;;;;;;;17.67;14.97;;;;;;;;;;4984697;28;21195;-44
2022/09/26 10:15:31;;;;;;;15.23;13.60;;;;;;;;;;4985761;28;20181;-44
2022/09/26 10:18:17;;;;;;;17.93;13.67;;;;;;;;;;4983254;28;20185;-44
2022/09/26 10:21:05;;;;;;;16.93;13.77;;;;;;;;;;4980045;28;20173;-42
2022/09/26 10:23:33;;;;;;;14.60;13.07;;;;;;;;;;4983395;28;20223;-43
2022/09/26 10:26:04;;;;;;;14.90;13.30;;;;;;;;;;4984786;28;20188;-43
2022/09/26 10:28:36;;;;;;;15.33;12.50;;;;;;;;;;4986244;28;20936;-43
2022/09/26 10:31:05;;;;;;;16.67;14.40;;;;;;;;;;4986424;28;20195;-42
2022/09/26 10:33:34;;;;;;;17.77;14.27;;;;;;;;;;4983901;28;20200;-43
2022/09/26 10:36:03;;;;;;;15.07;13.47;;;;;;;;;;4979984;28;20187;-42
2022/09/26 10:38:30;;;;;;;17.03;14.10;;;;;;;;;;4980456;28;20182;-43
2022/09/26 10:40:58;;;;;;;15.87;13.30;;;;;;;;;;4982169;28;20184;-43
2022/09/26 10:43:29;;;;;;;14.43;12.93;;;;;;;;;;4982627;28;20176;-43
2022/09/26 10:46:01;;;;;;;14.40;12.90;;;;;;;;;;4981403;28;20945;-43
2022/09/26 10:48:36;;;;;;;13.87;12.40;;;;;;;;;;4979673;28;21134;-42
2022/09/26 10:51:02;;;;;;;15.10;13.57;;;;;;;;;;4981455;28;20673;-43
2022/09/26 10:53:33;;;;;;;15.23;13.23;;;;;;;;;;4984168;28;20221;-43
2022/09/26 10:56:01;;;;;;;16.20;14.50;;;;;;;;;;4983801;28;20166;-43
2022/09/26 10:58:28;;;;;;;14.40;13.00;;;;;;;;;;4982839;28;20182;-44
2022/09/26 11:00:56;;;;;;;14.83;13.33;;;;;;;;;;4984941;28;20173;-42
2022/09/26 11:03:33;;;;;;;15.37;13.83;;;;;;;;;;4979326;28;20189;-44
2022/09/26 11:05:59;;;;;;;16.47;14.77;;;;;;;;;;4977385;28;20177;-44
2022/09/26 11:08:48;;;;;;;15.33;13.67;;;;;;;;;;4981708;28;20258;-43
2022/09/26 11:11:16;;;;;;;13.63;12.33;;;;;;;;;;4975905;28;20181;-44
2022/09/26 11:13:49;;;;;;;16.40;14.70;;;;;;;;;;4978978;28;20637;-43
2022/09/26 11:16:19;;;;;;;16.67;14.97;;;;;;;;;;4979465;28;20184;-44
2022/09/26 11:18:53;;;;;;;16.37;14.77;;;;;;;;;;4982052;28;20282;-44
2022/09/26 11:21:25;;;;;;;16.40;14.53;;;;;;;;;;4984347;28;20184;-44
2022/09/26 11:24:05;;;;;;;16.53;14.83;;;;;;;;;;4986493;28;20270;-44
2022/09/26 11:26:32;;;;;;;16.30;14.60;;;;;;;;;;4987857;28;20184;-44
2022/09/26 11:29:17;;;;;;;16.40;14.43;;;;;;;;;;4989652;28;20259;-44
2022/09/26 11:31:44;;;;;;;18.57;15.50;;;;;;;;;;4992372;28;20176;-44
2022/09/26 11:34:15;;;;;;;15.23;13.63;;;;;;;;;;4989579;28;20278;-44
2022/09/26 11:36:44;;;;;;;15.17;13.60;;;;;;;;;;4987212;28;20165;-43
2022/09/26 11:39:12;;;;;;;14.03;12.60;;;;;;;;;;4991556;28;20187;-42
2022/09/26 11:41:40;;;;;;;13.37;11.97;;;;;;;;;;4991931;28;20211;-42
2022/09/26 11:44:09;;;;;;;14.73;13.23;;;;;;;;;;4989890;28;20188;-41
2022/09/26 11:46:47;;;;;;;15.97;14.27;;;;;;;;;;4985373;28;21637;-42
2022/09/26 11:49:29;;;;;;;15.30;12.90;;;;;;;;;;4987064;28;21289;-43
2022/09/26 11:52:04;;;;;;;13.07;11.70;;;;;;;;;;4985682;28;20181;-43
2022/09/26 11:54:44;;;;;;;11.30;10.10;;;;;;;;;;4983416;28;20509;-43
2022/09/26 11:57:30;;;;;;;13.30;11.40;;;;;;;;;;4984422;28;20480;-43
2022/09/26 12:00:05;;;;;;;15.83;14.23;;;;;;;;;;4980661;28;20737;-43
2022/09/26 12:02:53;;;;;;;15.03;13.50;;;;;;;;;;4981736;28;21097;-43
2022/09/26 12:05:28;;;;;;;13.97;12.47;;;;;;;;;;4983883;28;20177;-43
2022/09/26 12:07:54;;;;;;;14.07;12.67;;;;;;;;;;4983328;28;20180;-43
2022/09/26 12:10:24;;;;;;;13.23;11.83;;;;;;;;;;5009808;28;21747;-43
2022/09/26 12:12:51;;;;;;;14.70;13.17;;;;;;;;;;4980137;28;20846;-43
2022/09/26 12:15:22;;;;;;;12.53;11.33;;;;;;;;;;4982488;28;20181;-43
2022/09/26 12:17:58;;;;;;;11.87;10.07;;;;;;;;;;4984545;28;20641;-42
2022/09/26 12:20:51;;;;;;;12.20;10.67;;;;;;;;;;4982039;28;20223;-43
2022/09/26 12:23:32;;;;;;;11.17;10.07;;;;;;;;;;4979065;28;20255;-43
2022/09/26 12:26:12;;;;;;;10.53;9.43;;;;;;;;;;4978266;28;20192;-40
2022/09/26 12:28:38;;;;;;;10.77;9.77;;;;;;;;;;4978100;28;20537;-43
2022/09/26 12:31:13;;;;;;;11.23;9.90;;;;;;;;;;4984244;28;20622;-42
2022/09/26 12:33:39;;;;;;;12.30;11.00;;;;;;;;;;4981543;28;20964;-42
2022/09/26 12:36:08;;;;;;;11.47;10.37;;;;;;;;;;4976103;28;20919;-42
2022/09/26 12:38:53;;;;;;;9.93;8.93;;;;;;;;;;4973744;28;20177;-43
2022/09/26 12:41:22;;;;;;;9.10;8.17;;;;;;;;;;4982516;28;20185;-43
2022/09/26 12:43:51;;;;;;;8.77;7.87;;;;;;;;;;4986769;28;20258;-43
2022/09/26 12:46:36;;;;;;;7.87;7.07;;;;;;;;;;4983198;28;20717;-42
2022/09/26 12:49:23;;;;;;;9.70;8.70;;;;;;;;;;4981101;28;20177;-43
2022/09/26 12:51:51;;;;;;;8.27;7.43;;;;;;;;;;4977562;28;20679;-43
2022/09/26 12:54:24;;;;;;;8.43;7.30;;;;;;;;;;4976626;28;20202;-43
2022/09/26 12:56:50;;;;;;;8.63;7.73;;;;;;;;;;4978565;28;20177;-43
2022/09/26 12:59:36;;;;;;;9.50;8.03;;;;;;;;;;4980312;28;20670;-43
2022/09/26 13:02:05;;;;;;;9.57;8.50;;;;;;;;;;4982141;28;20219;-43
2022/09/26 13:04:37;;;;;;;8.47;6.83;;;;;;;;;;4985337;28;20177;-43
2022/09/26 13:07:09;;;;;;;7.40;6.70;;;;;;;;;;4981984;28;20304;-43
2022/09/26 13:09:54;;;;;;;9.63;7.33;;;;;;;;;;4981714;28;20193;-42
2022/09/26 13:12:31;;;;;;;10.03;7.17;;;;;;;;;;4984086;28;20697;-42
2022/09/26 13:15:03;;;;;;;9.43;7.37;;;;;;;;;;4987344;28;20555;-43
2022/09/26 13:17:35;;;;;;;11.80;7.17;;;;;;;;;;4983833;28;20284;-43
2022/09/26 13:20:13;;;;;;;7.00;5.90;;;;;;;;;;4980862;28;20304;-43
2022/09/26 13:22:39;;;;;;;6.87;6.17;;;;;;;;;;4974113;28;20165;-42
2022/09/26 13:25:13;;;;;;;8.40;7.20;;;;;;;;;;4980559;28;20185;-42
2022/09/26 13:28:03;;;;;;;9.57;7.23;;;;;;;;;;4983843;28;20516;-42
2022/09/26 13:30:36;;;;;;;6.77;6.10;;;;;;;;;;4982147;28;20205;-42
2022/09/26 13:33:19;;;;;;;8.97;6.80;;;;;;;;;;4981745;28;20595;-43
2022/09/26 13:35:46;;;;;;;8.63;7.40;;;;;;;;;;4979165;28;20176;-43
2022/09/26 13:38:32;;;;;;;8.63;6.57;;;;;;;;;;4982028;28;20197;-43
2022/09/26 13:41:03;;;;;;;10.53;6.17;;;;;;;;;;4981724;28;20966;-42
2022/09/26 13:43:48;;;;;;;6.80;6.10;;;;;;;;;;4985780;28;20446;-42
2022/09/26 13:46:35;;;;;;;6.87;6.17;;;;;;;;;;4981050;28;20464;-42
2022/09/26 13:49:07;;;;;;;6.67;5.97;;;;;;;;;;4971060;28;20189;-43
2022/09/26 13:51:53;;;;;;;5.60;5.10;;;;;;;;;;4977781;28;20640;-43
2022/09/26 13:54:19;;;;;;;5.93;5.33;;;;;;;;;;4978474;28;20502;-43
2022/09/26 13:56:53;;;;;;;6.10;5.57;;;;;;;;;;4980392;28;20606;-42
2022/09/26 13:59:20;;;;;;;6.10;5.50;;;;;;;;;;4983501;28;20191;-42
2022/09/26 14:02:15;;;;;;;6.63;5.93;;;;;;;;;;4977842;28;20632;-43
2022/09/26 14:04:42;;;;;;;5.63;5.10;;;;;;;;;;4980959;28;20705;-43
2022/09/26 14:10:02;;;;;;;5.57;4.97;;;;;;;;;;4976515;28;20386;-43
2022/09/26 14:12:51;;;;;;;6.97;5.57;;;;;;;;;;5010493;28;20508;-44
2022/09/26 14:15:34;;;;;;;4.77;4.27;;;;;;;;;;4989637;28;20192;-43
2022/09/26 14:18:33;;;;;;;7.37;4.93;;;;;;;;;;4989483;28;20169;-43
2022/09/26 14:21:03;;;;;;;8.33;5.10;;;;;;;;;;4989071;28;20374;-43
2022/09/26 14:23:38;;;;;;;10.27;6.33;;;;;;;;;;4979727;28;20306;-44
2022/09/26 14:26:05;;;;;;;6.53;5.83;;;;;;;;;;4980224;28;20215;-43
2022/09/26 14:28:33;;;;;;;6.20;5.60;;;;;;;;;;4983071;28;20997;-43
2022/09/26 14:31:31;;;;;;;5.77;5.17;;;;;;;;;;4982106;28;20662;-43
2022/09/26 14:34:18;;;;;;;8.50;6.70;;;;;;;;;;4982745;28;20870;-43
2022/09/26 14:36:45;;;;;;;6.47;5.57;;;;;;;;;;4986236;28;20166;-43
2022/09/26 14:39:23;;;;;;;5.87;5.27;;;;;;;;;;4988184;28;20173;-43
2022/09/26 14:41:49;;;;;;;7.50;6.77;;;;;;;;;;4979331;28;20176;-43
2022/09/26 14:44:20;;;;;;;8.40;7.27;;;;;;;;;;4986603;28;20196;-43
2022/09/26 14:46:51;;;;;;;9.77;7.97;;;;;;;;;;4979740;28;20648;-43
2022/09/26 14:49:23;;;;;;;6.90;6.20;;;;;;;;;;4983311;28;20186;-43
2022/09/26 14:51:50;;;;;;;7.83;6.90;;;;;;;;;;4979329;28;20177;-43
2022/09/26 14:54:24;;;;;;;10.13;8.13;;;;;;;;;;4976536;28;21161;-42